Time;durP1;ratioP1;P1;durP2;ratioP2;P2;SDS_P1;SDS_P2;PMS_P1;PMS_P2;Temp;Humidity;BMP_temperature;BMP_pressure;BME280_temperature;BME280_humidity;BME280_pressure;Samples;Min_cycle;Max_cycle;Signal;HPM_P1;HPM_P2
2023/01/07 00:00:07;;;;;;;22.77;10.80;;;8.90;99.90;;;;;;4248617;27;20051;-85
2023/01/07 00:02:08;;;;;;;26.27;11.65;;;8.60;99.90;;;;;;4247853;27;20507;-85
2023/01/07 00:04:14;;;;;;;20.80;9.85;;;8.60;99.90;;;;;;4230176;28;20048;-85
2023/01/07 00:06:18;;;;;;;28.38;11.25;;;8.60;99.90;;;;;;4247445;28;20107;-85
2023/01/07 00:08:18;;;;;;;29.30;11.60;;;8.70;99.90;;;;;;4248517;27;20086;-85
2023/01/07 00:10:19;;;;;;;26.05;10.88;;;8.70;99.90;;;;;;4248118;28;20384;-85
2023/01/07 00:12:21;;;;;;;29.10;11.85;;;8.90;99.90;;;;;;4259554;27;20396;-85
2023/01/07 00:14:22;;;;;;;24.15;10.63;;;8.80;99.90;;;;;;4247210;28;20146;-85
2023/01/07 00:16:26;;;;;;;23.00;10.10;;;8.90;99.90;;;;;;4265527;27;20050;-85
2023/01/07 00:18:26;;;;;;;26.02;12.30;;;8.90;99.90;;;;;;4266229;27;20114;-85
2023/01/07 00:20:27;;;;;;;26.35;11.73;;;9.00;99.90;;;;;;4264841;27;20479;-85
2023/01/07 00:22:28;;;;;;;28.13;12.48;;;9.00;99.90;;;;;;4265784;27;20071;-85
2023/01/07 00:24:29;;;;;;;28.73;12.20;;;9.00;99.90;;;;;;4247261;28;20041;-85
2023/01/07 00:26:34;;;;;;;26.38;11.25;;;9.10;99.90;;;;;;4250067;27;20044;-85
2023/01/07 00:28:39;;;;;;;25.23;11.43;;;9.30;99.90;;;;;;4230165;28;20122;-86
2023/01/07 00:30:39;;;;;;;32.25;12.88;;;9.10;99.90;;;;;;4229983;28;20131;-85
2023/01/07 00:32:52;;;;;;;23.30;12.05;;;9.90;99.90;;;;;;4248443;28;20043;-85
2023/01/07 00:34:53;;;;;;;30.27;13.32;;;9.20;99.90;;;;;;4248340;28;20097;-85
2023/01/07 00:37:48;;;;;;;31.17;13.93;;;9.40;99.90;;;;;;4248890;28;20043;-86
2023/01/07 00:39:18;;;;;;;30.92;12.05;;;9.20;99.90;;;;;;4230288;28;20446;-86
2023/01/07 00:41:19;;;;;;;27.95;12.48;;;9.30;99.90;;;;;;4248035;28;20046;-86
2023/01/07 00:43:20;;;;;;;27.60;12.38;;;9.40;99.90;;;;;;4213493;28;20512;-86
2023/01/07 00:45:24;;;;;;;29.02;12.48;;;9.30;99.90;;;;;;4248401;28;20498;-85
2023/01/07 00:47:24;;;;;;;23.75;11.52;;;9.30;99.90;;;;;;4248301;28;20507;-86
2023/01/07 00:49:25;;;;;;;28.65;12.15;;;9.30;99.90;;;;;;4229887;28;20050;-86
2023/01/07 00:51:26;;;;;;;29.00;12.70;;;9.30;99.90;;;;;;4248664;28;20542;-86
2023/01/07 00:53:29;;;;;;;27.73;10.85;;;9.50;99.90;;;;;;4248544;28;20047;-86
2023/01/07 00:55:31;;;;;;;24.38;11.20;;;9.40;99.90;;;;;;4212742;28;20419;-86
2023/01/07 00:57:32;;;;;;;25.98;11.45;;;9.40;99.90;;;;;;4248202;28;20483;-85
2023/01/07 00:59:33;;;;;;;26.25;11.55;;;9.40;99.90;;;;;;4248058;28;20039;-86
2023/01/07 01:01:35;;;;;;;25.90;11.80;;;9.60;99.90;;;;;;4229720;28;20043;-86
2023/01/07 01:03:37;;;;;;;21.63;10.10;;;9.50;99.90;;;;;;4248382;28;20035;-86
2023/01/07 01:05:38;;;;;;;22.08;10.77;;;9.50;99.90;;;;;;4229793;28;20043;-85
2023/01/07 01:07:40;;;;;;;27.65;11.30;;;9.60;99.90;;;;;;4229968;28;20878;-86
2023/01/07 01:09:41;;;;;;;21.95;10.23;;;9.60;99.90;;;;;;4248177;28;20047;-86
2023/01/07 01:11:42;;;;;;;25.52;10.73;;;9.60;99.90;;;;;;4212582;28;20604;-86
2023/01/07 01:13:44;;;;;;;23.13;10.30;;;9.60;99.90;;;;;;4232959;28;20047;-86
2023/01/07 01:15:46;;;;;;;24.15;10.35;;;8.00;99.90;;;;;;4233594;28;20415;-84
2023/01/07 01:17:50;;;;;;;22.70;9.23;;;9.60;99.90;;;;;;4249506;27;20088;-84
2023/01/07 01:19:50;;;;;;;22.65;10.15;;;9.70;99.90;;;;;;4232764;28;20051;-84
2023/01/07 01:21:51;;;;;;;19.40;9.40;;;9.70;99.90;;;;;;4249881;27;20078;-85
2023/01/07 01:23:52;;;;;;;18.83;9.48;;;9.80;99.90;;;;;;4232754;28;20147;-85
2023/01/07 01:26:01;;;;;;;21.60;9.02;;;9.80;99.90;;;;;;4232530;28;20122;-86
2023/01/07 01:28:02;;;;;;;18.60;8.82;;;9.90;99.90;;;;;;4248281;27;20551;-85
2023/01/07 01:30:05;;;;;;;18.90;9.18;;;9.80;99.90;;;;;;4250490;27;20170;-85
2023/01/07 01:32:06;;;;;;;19.60;8.60;;;9.80;99.90;;;;;;4250988;27;20068;-85
2023/01/07 01:34:07;;;;;;;23.52;10.60;;;9.90;99.90;;;;;;4249617;27;20126;-85
2023/01/07 01:36:11;;;;;;;19.25;8.80;;;9.80;99.90;;;;;;4232235;28;20471;-85
2023/01/07 01:38:12;;;;;;;20.13;9.13;;;9.90;99.90;;;;;;4250749;27;20506;-85
2023/01/07 01:40:13;;;;;;;19.42;9.27;;;9.90;99.90;;;;;;4250538;27;20035;-85
2023/01/07 01:42:16;;;;;;;17.73;8.52;;;9.90;99.90;;;;;;4250030;27;20044;-85
2023/01/07 01:44:50;;;;;;;20.27;9.57;;;9.90;99.90;;;;;;4250336;27;20046;-85
2023/01/07 01:46:52;;;;;;;17.55;9.10;;;9.70;99.90;;;;;;4234932;27;20048;-85
2023/01/07 01:49:15;;;;;;;20.33;9.15;;;9.90;99.90;;;;;;4250506;27;20046;-85
2023/01/07 01:51:20;;;;;;;18.60;8.50;;;10.00;99.90;;;;;;4232280;28;20171;-85
2023/01/07 01:53:27;;;;;;;19.90;8.98;;;10.00;99.90;;;;;;4249316;27;20122;-85
2023/01/07 01:55:33;;;;;;;20.13;9.57;;;10.00;99.90;;;;;;4250211;27;20072;-85
2023/01/07 01:57:37;;;;;;;20.05;8.68;;;10.10;99.90;;;;;;4250076;27;20267;-85
2023/01/07 01:59:43;;;;;;;17.42;8.15;;;10.00;99.90;;;;;;4249614;27;20058;-85
2023/01/07 02:01:44;;;;;;;21.77;8.88;;;10.10;99.90;;;;;;4249295;27;20058;-85
2023/01/07 02:03:47;;;;;;;18.30;8.77;;;10.00;99.90;;;;;;4248945;27;20059;-85
2023/01/07 02:05:48;;;;;;;17.42;8.77;;;10.10;99.90;;;;;;4249284;27;20241;-85
2023/01/07 02:07:49;;;;;;;18.08;8.85;;;9.00;99.90;;;;;;4249275;27;20043;-85
2023/01/07 02:10:14;;;;;;;18.50;9.10;;;10.10;99.90;;;;;;4248397;27;20042;-86
2023/01/07 02:12:32;;;;;;;19.23;8.50;;;10.20;99.90;;;;;;4248765;27;20059;-85
2023/01/07 02:14:36;;;;;;;19.67;9.43;;;10.10;99.90;;;;;;4249115;27;20039;-85
2023/01/07 02:16:51;;;;;;;16.58;8.38;;;10.20;99.90;;;;;;4248829;27;20054;-85
2023/01/07 02:19:11;;;;;;;18.13;7.97;;;10.20;99.90;;;;;;4248733;27;20054;-84
2023/01/07 02:21:46;;;;;;;17.23;8.05;;;10.20;99.90;;;;;;4248640;27;20442;-84
2023/01/07 02:24:14;;;;;;;19.88;9.07;;;10.20;99.90;;;;;;4249233;27;20050;-84
2023/01/07 02:26:32;;;;;;;18.57;9.47;;;10.20;99.90;;;;;;4249423;27;20047;-85
2023/01/07 02:28:42;;;;;;;19.60;9.23;;;10.30;99.90;;;;;;4248953;27;20293;-85
2023/01/07 02:31:01;;;;;;;17.58;9.07;;;10.20;99.90;;;;;;4250351;27;20479;-86
2023/01/07 02:33:21;;;;;;;17.67;9.75;;;10.30;99.90;;;;;;4248208;27;20047;-85
2023/01/07 02:35:43;;;;;;;19.80;9.60;;;10.30;99.90;;;;;;4250138;27;20047;-86
2023/01/07 02:38:21;;;;;;;18.13;9.60;;;10.30;99.90;;;;;;4248996;27;20123;-86
2023/01/07 02:40:37;;;;;;;19.60;9.13;;;10.30;99.90;;;;;;4248955;27;20050;-87
2023/01/07 02:42:53;;;;;;;15.25;8.20;;;10.40;99.90;;;;;;4248310;27;20074;-86
2023/01/07 02:45:19;;;;;;;19.48;8.82;;;10.40;99.90;;;;;;4248905;27;20775;-86
2023/01/07 02:47:45;;;;;;;17.77;9.75;;;10.40;99.90;;;;;;4248948;27;20058;-86
2023/01/07 02:49:47;;;;;;;23.13;10.57;;;10.40;99.90;;;;;;4248946;27;20091;-86
2023/01/07 02:51:50;;;;;;;18.15;10.38;;;10.40;99.90;;;;;;4248935;27;20062;-87
2023/01/07 02:53:51;;;;;;;17.63;9.73;;;10.40;99.90;;;;;;4250338;27;20043;-86
2023/01/07 02:56:09;;;;;;;18.90;10.30;;;10.20;99.90;;;;;;4248838;27;20053;-86
2023/01/07 02:58:25;;;;;;;22.42;10.15;;;10.40;99.90;;;;;;4259445;27;20427;-86
2023/01/07 03:00:47;;;;;;;17.25;9.30;;;10.40;99.90;;;;;;4265328;27;20064;-86
2023/01/07 03:03:27;;;;;;;17.08;9.60;;;10.40;99.90;;;;;;4265559;27;20043;-86
2023/01/07 03:05:34;;;;;;;18.55;10.23;;;10.40;99.90;;;;;;4266939;27;20033;-85
2023/01/07 03:08:11;;;;;;;18.13;10.13;;;10.40;99.90;;;;;;4265299;27;20047;-85
2023/01/07 03:10:46;;;;;;;17.95;9.77;;;10.40;99.90;;;;;;4265050;27;20082;-86
2023/01/07 03:13:02;;;;;;;16.40;9.85;;;10.40;99.90;;;;;;4239617;27;20074;-87
2023/01/07 03:15:21;;;;;;;15.30;8.90;;;10.40;99.90;;;;;;4228348;28;20051;-86
2023/01/07 03:17:29;;;;;;;16.88;9.73;;;10.50;99.90;;;;;;4243841;28;20067;-86
2023/01/07 03:19:34;;;;;;;20.08;10.45;;;10.50;99.90;;;;;;4240552;28;20040;-86
2023/01/07 03:21:36;;;;;;;15.55;8.85;;;10.50;99.90;;;;;;4232575;28;20677;-86
2023/01/07 03:23:44;;;;;;;16.30;9.60;;;10.50;99.90;;;;;;4232801;28;20036;-86
2023/01/07 03:25:49;;;;;;;19.05;9.57;;;10.50;99.90;;;;;;4232592;28;20046;-86
2023/01/07 03:27:51;;;;;;;17.35;10.23;;;10.50;99.90;;;;;;4230174;28;20051;-86
2023/01/07 03:29:54;;;;;;;19.25;9.80;;;10.50;99.90;;;;;;4230672;28;20054;-86
2023/01/07 03:32:02;;;;;;;16.10;9.95;;;10.50;99.90;;;;;;4231444;28;20566;-86
2023/01/07 03:34:16;;;;;;;14.60;8.95;;;10.50;99.90;;;;;;4230325;28;20059;-86
2023/01/07 03:36:21;;;;;;;18.42;10.90;;;10.50;99.90;;;;;;4229957;28;20507;-83
2023/01/07 03:38:23;;;;;;;14.85;9.77;;;10.60;99.90;;;;;;4213290;28;20090;-86
2023/01/07 03:40:23;;;;;;;16.48;10.35;;;10.60;99.90;;;;;;4231491;28;20052;-84
2023/01/07 03:42:39;;;;;;;18.75;10.98;;;10.60;99.90;;;;;;4232118;28;20051;-85
2023/01/07 03:44:40;;;;;;;15.95;9.80;;;10.60;99.90;;;;;;4230048;28;20109;-85
2023/01/07 03:46:42;;;;;;;15.30;10.27;;;10.60;99.90;;;;;;4230792;28;20045;-85
2023/01/07 03:48:43;;;;;;;16.55;9.90;;;10.60;99.90;;;;;;4247314;27;20058;-85
2023/01/07 03:50:44;;;;;;;17.70;9.68;;;10.60;99.90;;;;;;4230709;28;20055;-85
2023/01/07 03:52:45;;;;;;;18.95;10.68;;;10.60;99.90;;;;;;4247645;27;20510;-85
2023/01/07 03:54:45;;;;;;;13.52;8.57;;;10.60;99.90;;;;;;4230920;28;20048;-85
2023/01/07 03:56:46;;;;;;;18.85;8.80;;;10.60;99.90;;;;;;4229795;28;20209;-85
2023/01/07 03:58:48;;;;;;;15.38;10.00;;;10.60;99.90;;;;;;4220270;28;20082;-85
2023/01/07 04:00:49;;;;;;;14.07;8.60;;;10.60;99.90;;;;;;4215066;28;20094;-85
2023/01/07 04:02:50;;;;;;;12.63;8.75;;;10.70;99.90;;;;;;4219897;28;20047;-85
2023/01/07 04:04:51;;;;;;;12.65;8.15;;;10.70;99.90;;;;;;4229611;28;20051;-85
2023/01/07 04:06:52;;;;;;;16.38;9.25;;;10.70;99.90;;;;;;4231715;28;20043;-85
2023/01/07 04:08:53;;;;;;;14.52;9.55;;;10.70;99.90;;;;;;4230315;28;20481;-85
2023/01/07 04:10:54;;;;;;;16.15;8.98;;;10.70;99.90;;;;;;4230044;28;20056;-86
2023/01/07 04:12:55;;;;;;;15.00;9.45;;;10.70;99.90;;;;;;4244102;28;20051;-85
2023/01/07 04:14:56;;;;;;;15.05;9.15;;;10.70;99.90;;;;;;4248594;28;20104;-85
2023/01/07 04:16:56;;;;;;;16.55;8.77;;;10.70;99.90;;;;;;4239026;27;20090;-85
2023/01/07 04:18:57;;;;;;;15.60;8.60;;;10.70;99.90;;;;;;4230081;28;20495;-85
2023/01/07 04:20:59;;;;;;;14.10;8.90;;;10.70;99.90;;;;;;4231284;28;20387;-85
2023/01/07 04:23:00;;;;;;;13.85;9.27;;;10.70;99.90;;;;;;4229663;28;20047;-86
2023/01/07 04:25:00;;;;;;;16.42;8.73;;;10.70;99.90;;;;;;4229951;28;20102;-85
2023/01/07 04:27:02;;;;;;;14.20;8.38;;;10.70;99.90;;;;;;4230311;28;20059;-85
2023/01/07 04:29:03;;;;;;;13.02;8.52;;;10.70;99.90;;;;;;4230119;28;20388;-85
2023/01/07 04:31:04;;;;;;;15.40;8.57;;;10.70;99.90;;;;;;4230027;28;20066;-85
2023/01/07 04:33:05;;;;;;;17.10;9.60;;;10.70;99.90;;;;;;4229524;28;20453;-85
2023/01/07 04:35:06;;;;;;;15.13;8.73;;;10.70;99.90;;;;;;4213073;28;20051;-85
2023/01/07 04:37:07;;;;;;;12.27;7.93;;;10.70;99.90;;;;;;4230323;28;20046;-85
2023/01/07 04:39:08;;;;;;;16.65;8.20;;;10.70;99.90;;;;;;4231667;28;20119;-85
2023/01/07 04:41:08;;;;;;;15.65;8.60;;;10.70;99.90;;;;;;4230642;28;20048;-85
2023/01/07 04:43:09;;;;;;;15.05;8.55;;;10.70;99.90;;;;;;4230766;28;20503;-85
2023/01/07 04:45:11;;;;;;;12.63;8.50;;;10.70;99.90;;;;;;4213177;28;20040;-85
2023/01/07 04:47:12;;;;;;;15.30;7.70;;;10.70;99.90;;;;;;4213243;28;20055;-85
2023/01/07 04:49:13;;;;;;;13.38;8.20;;;10.70;99.90;;;;;;4237897;27;20491;-85
2023/01/07 04:51:13;;;;;;;17.05;9.30;;;10.70;99.90;;;;;;4246466;27;20122;-85
2023/01/07 04:53:14;;;;;;;15.80;8.55;;;10.70;99.90;;;;;;4233583;28;20496;-85
2023/01/07 04:55:15;;;;;;;13.23;8.90;;;10.70;99.90;;;;;;4234520;28;20143;-85
2023/01/07 04:57:17;;;;;;;14.00;9.55;;;10.70;99.90;;;;;;4216890;28;20472;-85
2023/01/07 04:59:19;;;;;;;15.68;9.55;;;10.70;99.90;;;;;;4234255;27;20429;-85
2023/01/07 05:01:19;;;;;;;14.27;8.50;;;10.70;99.90;;;;;;4234814;28;20063;-85
2023/01/07 05:03:20;;;;;;;13.75;8.43;;;10.70;99.90;;;;;;4234286;28;20127;-85
2023/01/07 05:05:21;;;;;;;12.02;8.43;;;10.70;99.90;;;;;;4234522;28;20035;-85
2023/01/07 05:07:22;;;;;;;13.80;8.60;;;10.70;99.90;;;;;;4233878;28;20044;-85
2023/01/07 05:09:22;;;;;;;13.25;8.43;;;10.70;99.90;;;;;;4232581;28;20050;-85
2023/01/07 05:11:23;;;;;;;14.30;8.25;;;10.70;99.90;;;;;;4232603;28;20508;-85
2023/01/07 05:13:24;;;;;;;14.98;8.60;;;10.60;99.90;;;;;;4232888;28;20665;-85
2023/01/07 05:15:25;;;;;;;14.88;8.35;;;10.60;99.90;;;;;;4232699;28;20046;-85
2023/01/07 05:17:25;;;;;;;16.05;8.45;;;10.60;99.90;;;;;;4246424;27;20046;-85
2023/01/07 05:19:26;;;;;;;16.77;8.38;;;10.60;99.90;;;;;;4251215;27;20448;-85
2023/01/07 05:21:27;;;;;;;12.30;8.05;;;10.60;99.90;;;;;;4248955;27;20416;-84
2023/01/07 05:23:27;;;;;;;19.30;9.35;;;10.60;99.90;;;;;;4249816;27;20055;-84
2023/01/07 05:25:28;;;;;;;14.10;7.95;;;10.60;99.90;;;;;;4250549;27;20049;-85
2023/01/07 05:27:29;;;;;;;13.30;8.20;;;10.60;99.90;;;;;;4232480;28;20047;-85
2023/01/07 05:29:30;;;;;;;17.73;8.20;;;10.60;99.90;;;;;;4250933;27;20039;-85
2023/01/07 05:31:30;;;;;;;15.48;8.80;;;10.50;99.90;;;;;;4249070;27;20058;-85
2023/01/07 05:33:31;;;;;;;13.75;8.60;;;10.50;99.90;;;;;;4250716;27;20130;-85
2023/01/07 05:35:33;;;;;;;14.65;7.25;;;10.50;99.90;;;;;;4249600;27;20043;-85
2023/01/07 05:37:35;;;;;;;14.25;8.52;;;10.50;99.90;;;;;;4250088;27;20096;-85
2023/01/07 05:39:36;;;;;;;15.07;8.18;;;10.50;99.90;;;;;;4251066;27;20043;-85
2023/01/07 05:41:36;;;;;;;12.40;8.40;;;10.50;99.90;;;;;;4250612;27;20168;-85
2023/01/07 05:43:37;;;;;;;14.27;8.32;;;10.50;99.90;;;;;;4250461;27;20031;-85
2023/01/07 05:45:43;;;;;;;14.57;8.63;;;10.50;99.90;;;;;;4249395;27;20047;-85
2023/01/07 05:47:44;;;;;;;14.77;8.68;;;10.50;99.90;;;;;;4249613;27;20055;-85
2023/01/07 05:49:45;;;;;;;10.63;7.10;;;10.40;99.90;;;;;;4249086;27;20122;-85
2023/01/07 05:51:45;;;;;;;14.25;7.88;;;10.50;99.90;;;;;;4248681;27;20046;-85
2023/01/07 05:53:46;;;;;;;12.38;6.80;;;10.50;99.90;;;;;;4250091;27;20136;-85
2023/01/07 05:55:47;;;;;;;10.50;6.53;;;10.50;99.90;;;;;;4250377;27;20039;-85
2023/01/07 05:57:48;;;;;;;12.40;6.30;;;10.50;99.90;;;;;;4251856;27;20047;-85
2023/01/07 05:59:48;;;;;;;12.07;7.47;;;10.50;99.90;;;;;;4249263;27;20058;-86
2023/01/07 06:01:49;;;;;;;13.05;7.53;;;10.50;99.90;;;;;;4251700;27;20491;-86
2023/01/07 06:03:50;;;;;;;13.40;6.85;;;10.50;99.90;;;;;;4250431;27;20043;-84
2023/01/07 06:05:51;;;;;;;12.65;7.53;;;10.50;99.90;;;;;;4250321;27;20043;-85
2023/01/07 06:07:51;;;;;;;11.57;6.32;;;10.50;99.90;;;;;;4257216;27;20051;-85
2023/01/07 06:09:52;;;;;;;12.75;6.90;;;10.50;99.90;;;;;;4249447;27;20054;-85
2023/01/07 06:11:53;;;;;;;14.43;7.03;;;10.50;99.90;;;;;;4254420;27;20062;-85
2023/01/07 06:13:54;;;;;;;13.15;6.65;;;10.50;99.90;;;;;;4231326;28;20051;-85
2023/01/07 06:16:05;;;;;;;11.25;6.43;;;10.50;99.90;;;;;;4266617;27;20051;-85
2023/01/07 06:18:06;;;;;;;10.18;6.55;;;10.50;99.90;;;;;;4231444;28;20089;-85
2023/01/07 06:20:08;;;;;;;9.48;6.07;;;10.50;99.90;;;;;;4231301;28;20044;-85
2023/01/07 06:22:08;;;;;;;11.10;6.28;;;10.50;99.90;;;;;;4231178;28;20040;-85
2023/01/07 06:24:09;;;;;;;10.73;6.40;;;10.40;99.90;;;;;;4249423;27;20478;-85
2023/01/07 06:26:10;;;;;;;11.13;6.68;;;10.50;99.90;;;;;;4249393;27;20047;-85
2023/01/07 06:28:11;;;;;;;12.95;5.78;;;10.40;99.90;;;;;;4247958;27;20093;-85
2023/01/07 06:30:12;;;;;;;10.05;5.82;;;10.40;99.90;;;;;;4249043;27;20491;-85
2023/01/07 06:32:13;;;;;;;12.25;6.07;;;10.40;99.90;;;;;;4252319;27;20103;-85
2023/01/07 06:34:13;;;;;;;11.35;6.15;;;10.40;99.90;;;;;;4249069;27;20051;-85
2023/01/07 06:36:14;;;;;;;13.27;6.32;;;10.40;99.90;;;;;;4247828;27;20638;-85
2023/01/07 06:38:15;;;;;;;12.60;6.22;;;10.40;99.90;;;;;;4248019;27;20051;-85
2023/01/07 06:40:16;;;;;;;15.07;6.40;;;10.40;99.90;;;;;;4230848;28;20515;-85
2023/01/07 06:42:16;;;;;;;11.00;6.35;;;10.40;99.90;;;;;;4230498;28;20043;-85
2023/01/07 06:44:17;;;;;;;11.30;6.65;;;10.40;99.90;;;;;;4248860;27;20043;-85
2023/01/07 06:46:18;;;;;;;11.73;5.85;;;10.40;99.90;;;;;;4249071;27;20051;-85
2023/01/07 06:48:19;;;;;;;13.20;6.25;;;10.40;99.90;;;;;;4248990;27;20050;-85
2023/01/07 06:50:20;;;;;;;11.20;6.03;;;10.30;99.90;;;;;;4261147;27;20200;-85
2023/01/07 06:52:20;;;;;;;11.95;6.30;;;10.30;99.90;;;;;;4266130;27;20046;-85
2023/01/07 06:54:21;;;;;;;10.88;5.78;;;10.30;99.90;;;;;;4230587;28;20543;-85
2023/01/07 06:56:22;;;;;;;10.55;6.22;;;10.30;99.90;;;;;;4266063;27;20038;-85
2023/01/07 06:58:23;;;;;;;13.13;6.05;;;10.30;99.90;;;;;;4247408;27;20055;-85
2023/01/07 07:00:23;;;;;;;9.93;5.55;;;10.30;99.90;;;;;;4266203;27;20045;-85
2023/01/07 07:02:26;;;;;;;9.80;5.97;;;10.30;99.90;;;;;;4247474;27;20046;-85
2023/01/07 07:04:27;;;;;;;11.60;5.57;;;10.20;99.90;;;;;;4247486;27;20088;-85
2023/01/07 07:06:28;;;;;;;9.20;5.75;;;10.20;99.90;;;;;;4265345;27;20054;-85
2023/01/07 07:08:29;;;;;;;15.10;6.18;;;10.20;99.90;;;;;;4266372;27;20051;-85
2023/01/07 07:10:29;;;;;;;8.20;5.38;;;10.20;99.90;;;;;;4265130;27;20042;-85
2023/01/07 07:12:30;;;;;;;8.43;4.72;;;10.20;99.90;;;;;;4265936;27;20419;-85
2023/01/07 07:14:31;;;;;;;9.65;5.97;;;10.20;99.90;;;;;;4266130;27;20042;-84
2023/01/07 07:16:32;;;;;;;8.45;5.10;;;10.20;99.90;;;;;;4265401;27;20049;-84
2023/01/07 07:18:33;;;;;;;9.98;5.68;;;10.20;99.90;;;;;;4266070;27;20406;-85
2023/01/07 07:20:35;;;;;;;8.35;5.25;;;10.20;99.90;;;;;;4247463;27;20042;-85
2023/01/07 07:22:36;;;;;;;8.35;5.47;;;10.20;99.90;;;;;;4247624;27;20518;-85
2023/01/07 07:24:36;;;;;;;10.48;5.35;;;10.20;99.90;;;;;;4266169;27;20081;-85
2023/01/07 07:26:37;;;;;;;9.93;5.05;;;10.20;99.90;;;;;;4230204;28;20419;-85
2023/01/07 07:28:41;;;;;;;11.75;5.68;;;10.20;99.90;;;;;;4264987;27;20035;-85
2023/01/07 07:30:42;;;;;;;10.02;5.55;;;10.20;99.90;;;;;;4265391;27;20038;-85
2023/01/07 07:32:43;;;;;;;10.48;5.57;;;10.20;99.90;;;;;;4265541;27;20050;-85
2023/01/07 07:34:44;;;;;;;8.63;5.05;;;10.20;99.90;;;;;;4247089;27;20043;-85
2023/01/07 07:36:45;;;;;;;9.77;5.32;;;10.20;99.90;;;;;;4246866;27;20051;-85
2023/01/07 07:38:45;;;;;;;7.50;4.47;;;10.20;99.90;;;;;;4263971;27;20074;-85
2023/01/07 07:40:46;;;;;;;10.82;5.35;;;10.20;99.90;;;;;;4246757;27;20051;-85
2023/01/07 07:42:47;;;;;;;8.52;5.10;;;10.20;99.90;;;;;;4263559;27;20049;-85
2023/01/07 07:44:49;;;;;;;8.98;5.25;;;10.20;99.90;;;;;;4265252;27;20104;-85
2023/01/07 07:46:49;;;;;;;8.55;4.80;;;10.20;99.90;;;;;;4246528;27;20533;-85
2023/01/07 07:48:50;;;;;;;13.35;5.10;;;10.20;99.90;;;;;;4246614;27;20086;-85
2023/01/07 07:50:52;;;;;;;7.50;5.13;;;10.20;99.90;;;;;;4229853;28;20535;-85
2023/01/07 07:52:54;;;;;;;7.97;4.82;;;10.20;99.90;;;;;;4265457;27;20408;-85
2023/01/07 07:54:54;;;;;;;10.02;4.75;;;10.20;99.90;;;;;;4265500;27;20047;-85
2023/01/07 07:56:57;;;;;;;8.18;4.20;;;10.20;99.90;;;;;;4265318;27;20049;-85
2023/01/07 07:58:57;;;;;;;9.45;4.70;;;10.20;99.90;;;;;;4246519;27;20448;-85
2023/01/07 08:00:58;;;;;;;9.32;4.13;;;10.40;99.90;;;;;;4265518;27;20042;-85
2023/01/07 08:02:59;;;;;;;9.50;4.55;;;10.10;99.90;;;;;;4265298;27;20550;-85
2023/01/07 08:05:00;;;;;;;10.98;5.10;;;10.20;99.90;;;;;;4247187;27;20051;-85
2023/01/07 08:07:01;;;;;;;10.85;4.93;;;10.20;99.90;;;;;;4265185;27;20039;-85
2023/01/07 08:09:02;;;;;;;9.45;4.60;;;10.20;99.90;;;;;;4247152;27;20054;-84
2023/01/07 08:11:03;;;;;;;10.10;4.32;;;10.20;99.90;;;;;;4247545;28;20051;-85
2023/01/07 08:13:04;;;;;;;9.68;4.30;;;10.20;99.90;;;;;;4265279;27;20081;-84
2023/01/07 08:15:06;;;;;;;7.15;4.32;;;10.20;99.90;;;;;;4265272;27;20122;-85
2023/01/07 08:17:07;;;;;;;7.40;4.20;;;10.20;99.90;;;;;;4265310;27;20050;-85
2023/01/07 08:19:09;;;;;;;6.60;3.83;;;10.20;99.90;;;;;;4246427;28;20453;-85
2023/01/07 08:21:10;;;;;;;7.47;3.85;;;10.20;99.90;;;;;;4229849;28;20047;-86
2023/01/07 08:23:11;;;;;;;5.88;3.85;;;10.20;99.90;;;;;;4267253;27;20049;-85
2023/01/07 08:25:12;;;;;;;7.63;4.05;;;10.20;99.90;;;;;;4222979;28;20074;-85
2023/01/07 08:27:13;;;;;;;6.90;4.07;;;10.20;99.90;;;;;;4247657;27;20515;-86
2023/01/07 08:29:13;;;;;;;5.70;3.63;;;10.20;99.90;;;;;;4268826;27;20043;-85
2023/01/07 08:31:14;;;;;;;7.90;3.83;;;10.20;99.90;;;;;;4268874;27;20046;-86
2023/01/07 08:33:15;;;;;;;5.13;3.33;;;10.20;99.90;;;;;;4251789;27;20047;-87
2023/01/07 08:35:23;;;;;;;11.65;3.63;;;10.20;99.90;;;;;;4251403;27;20043;-87
2023/01/07 08:37:25;;;;;;;5.05;3.58;;;10.20;99.90;;;;;;4252004;27;20058;-86
2023/01/07 08:39:25;;;;;;;6.28;4.07;;;10.20;99.90;;;;;;4270546;27;20121;-85
2023/01/07 08:41:26;;;;;;;8.80;3.88;;;10.20;99.90;;;;;;4252244;27;20541;-86
2023/01/07 08:43:27;;;;;;;5.22;3.35;;;10.10;99.90;;;;;;4251672;27;20139;-86
2023/01/07 08:45:29;;;;;;;6.68;3.42;;;10.20;99.90;;;;;;4240827;28;20453;-86
2023/01/07 08:47:39;;;;;;;5.65;3.10;;;10.10;99.90;;;;;;4288721;27;20053;-85
2023/01/07 08:49:40;;;;;;;5.57;3.20;;;10.10;99.90;;;;;;4269272;27;20059;-86
2023/01/07 08:51:52;;;;;;;6.15;3.10;;;10.20;99.90;;;;;;4288831;27;20035;-86
2023/01/07 08:53:54;;;;;;;3.85;2.55;;;10.20;99.90;;;;;;4289084;27;20042;-86
2023/01/07 08:55:57;;;;;;;5.03;3.00;;;10.20;99.90;;;;;;4249936;28;20047;-86
2023/01/07 08:57:58;;;;;;;5.95;2.97;;;10.30;99.90;;;;;;4269809;27;20039;-85
2023/01/07 08:59:58;;;;;;;5.97;2.75;;;10.40;99.90;;;;;;4269624;27;20040;-87
2023/01/07 09:02:00;;;;;;;7.18;3.53;;;10.20;99.90;;;;;;4252965;28;20056;-87
2023/01/07 09:04:01;;;;;;;4.68;3.17;;;10.30;99.90;;;;;;4263624;27;20107;-87
2023/01/07 09:06:02;;;;;;;7.07;2.88;;;10.30;99.90;;;;;;4270268;27;20051;-86
2023/01/07 09:08:03;;;;;;;8.23;3.05;;;10.40;99.90;;;;;;4252290;27;20051;-87
2023/01/07 09:10:10;;;;;;;5.60;2.58;;;10.60;99.90;;;;;;4270247;27;20503;-87
2023/01/07 09:12:13;;;;;;;6.88;2.15;;;10.70;99.90;;;;;;4266639;27;20055;-88
2023/01/07 09:14:14;;;;;;;5.55;2.60;;;10.70;99.90;;;;;;4233440;28;20052;-86
2023/01/07 09:16:15;;;;;;;6.60;2.78;;;10.70;99.90;;;;;;4252793;27;20062;-86
2023/01/07 09:18:16;;;;;;;5.35;2.47;;;10.70;99.90;;;;;;4234540;28;20043;-86
2023/01/07 09:20:17;;;;;;;5.18;2.60;;;10.60;99.90;;;;;;4251003;27;20049;-86
2023/01/07 09:22:17;;;;;;;4.47;2.72;;;10.60;99.90;;;;;;4268120;27;20042;-87
2023/01/07 09:24:18;;;;;;;3.83;2.58;;;10.60;99.90;;;;;;4268781;27;20046;-86
2023/01/07 09:26:19;;;;;;;5.38;2.80;;;10.60;99.90;;;;;;4268122;27;20082;-86
2023/01/07 09:28:20;;;;;;;4.30;2.40;;;10.70;99.90;;;;;;4268219;27;20513;-85
2023/01/07 09:30:21;;;;;;;3.97;2.60;;;10.80;99.90;;;;;;4268009;27;20122;-85
2023/01/07 09:32:21;;;;;;;4.95;2.40;;;10.90;99.90;;;;;;4267458;27;20110;-85
2023/01/07 09:34:22;;;;;;;4.22;2.20;;;11.00;99.90;;;;;;4267190;27;20038;-85
2023/01/07 09:36:23;;;;;;;3.63;2.20;;;11.10;99.90;;;;;;4232627;28;20083;-84
2023/01/07 09:38:24;;;;;;;3.20;2.13;;;11.20;99.90;;;;;;4264565;27;20456;-85
2023/01/07 09:40:29;;;;;;;9.90;2.90;;;11.20;99.90;;;;;;4246171;27;20043;-86
2023/01/07 09:42:53;;;;;;;5.45;2.10;;;11.20;99.90;;;;;;4250212;27;20094;-87
2023/01/07 09:45:17;;;;;;;3.47;2.40;;;11.10;99.90;;;;;;4249612;27;20518;-86
2023/01/07 09:47:21;;;;;;;4.10;2.03;;;11.10;99.90;;;;;;4249795;27;20169;-86
2023/01/07 09:49:26;;;;;;;5.85;2.10;;;11.20;99.90;;;;;;4249668;27;20054;-87
2023/01/07 09:51:42;;;;;;;4.47;2.10;;;11.20;99.90;;;;;;4268169;27;20043;-86
2023/01/07 09:53:48;;;;;;;6.15;2.42;;;11.30;99.90;;;;;;4268959;27;20047;-86
2023/01/07 09:55:51;;;;;;;3.15;2.35;;;11.50;99.90;;;;;;4232421;28;20457;-86
2023/01/07 09:57:52;;;;;;;4.65;2.47;;;11.50;99.90;;;;;;4267351;27;20177;-86
2023/01/07 09:59:54;;;;;;;3.20;2.00;;;11.10;99.90;;;;;;4232740;28;20062;-86
2023/01/07 10:02:41;;;;;;;5.70;2.13;;;11.40;99.90;;;;;;4268431;27;20116;-86
2023/01/07 10:04:49;;;;;;;4.47;1.60;;;11.20;99.90;;;;;;4267608;27;20042;-86
2023/01/07 10:07:32;;;;;;;4.43;2.13;;;11.20;99.90;;;;;;4272386;27;20035;-87
2023/01/07 10:09:53;;;;;;;3.05;1.98;;;11.20;99.90;;;;;;4267073;27;20046;-86
2023/01/07 10:12:19;;;;;;;4.82;2.20;;;11.20;99.90;;;;;;4248377;27;20584;-87
2023/01/07 10:14:34;;;;;;;5.20;2.10;;;11.10;99.90;;;;;;4248853;27;20112;-86
2023/01/07 10:16:46;;;;;;;5.97;2.10;;;11.10;99.90;;;;;;4244533;27;20039;-86
2023/01/07 10:19:04;;;;;;;3.50;2.15;;;11.10;99.90;;;;;;4233522;28;20040;-86
2023/01/07 10:21:37;;;;;;;4.22;1.80;;;11.00;99.90;;;;;;4232733;28;20031;-86
2023/01/07 10:23:49;;;;;;;2.55;1.63;;;11.00;99.90;;;;;;4198392;28;20432;-86
2023/01/07 10:25:52;;;;;;;3.10;1.80;;;11.00;99.90;;;;;;4231168;28;20092;-86
2023/01/07 10:27:58;;;;;;;4.05;2.08;;;11.00;99.90;;;;;;4231660;28;20047;-86
2023/01/07 10:30:06;;;;;;;3.20;1.38;;;11.10;99.90;;;;;;4231115;28;20127;-86
2023/01/07 10:32:18;;;;;;;3.55;1.45;;;11.10;99.90;;;;;;4232802;28;20044;-86
2023/01/07 10:34:26;;;;;;;5.45;2.22;;;11.20;99.90;;;;;;4231614;28;20167;-86
2023/01/07 10:36:31;;;;;;;3.97;1.70;;;11.30;99.90;;;;;;4230804;28;20052;-87
2023/01/07 10:38:36;;;;;;;5.40;1.73;;;11.30;99.90;;;;;;4234608;27;20367;-87
2023/01/07 10:40:42;;;;;;;2.70;1.67;;;11.20;99.90;;;;;;4240857;27;20046;-87
2023/01/07 10:42:55;;;;;;;6.15;1.80;;;11.20;99.90;;;;;;4249763;27;20503;-86